createdAt,value
2022-12-04T00:01:23.918Z,-0.34
2022-12-04T00:04:26.795Z,-0.30
2022-12-04T00:07:29.761Z,-0.30
2022-12-04T00:10:32.662Z,-0.35
2022-12-04T00:13:36.425Z,-0.42
2022-12-04T00:16:39.351Z,-0.43
2022-12-04T00:19:44.883Z,-0.41
2022-12-04T00:22:47.739Z,-0.38
2022-12-04T00:25:50.521Z,-0.35
2022-12-04T00:28:53.742Z,-0.35
2022-12-04T00:31:56.538Z,-0.38
2022-12-04T00:34:59.399Z,-0.40
2022-12-04T00:38:02.221Z,-0.45
2022-12-04T00:41:05.300Z,-0.48
2022-12-04T00:44:08.216Z,-0.49
2022-12-04T00:47:10.999Z,-0.46
2022-12-04T00:50:13.796Z,-0.43
2022-12-04T00:53:16.940Z,-0.36
2022-12-04T00:56:24.121Z,-0.31
2022-12-04T00:59:26.975Z,-0.25
2022-12-04T01:02:30.853Z,-0.22
2022-12-04T01:05:42.047Z,-0.20
2022-12-04T01:08:44.791Z,-0.21
2022-12-04T01:11:47.622Z,-0.26
2022-12-04T01:14:50.361Z,-0.26
2022-12-04T01:17:53.143Z,-0.26
2022-12-04T01:20:56.002Z,-0.31
2022-12-04T01:23:59.871Z,-0.37
2022-12-04T01:27:03.109Z,-0.40
2022-12-04T01:30:06.519Z,-0.47
2022-12-04T01:33:09.341Z,-0.55
2022-12-04T01:36:19.080Z,-0.59
2022-12-04T01:39:21.970Z,-0.56
2022-12-04T01:42:25.402Z,-0.54
2022-12-04T01:45:31.160Z,-0.54
2022-12-04T01:48:39.168Z,-0.55
2022-12-04T01:51:46.642Z,-0.58
2022-12-04T01:54:54.189Z,-0.63
2022-12-04T01:57:58.119Z,-0.66
2022-12-04T02:01:08.506Z,-0.68
2022-12-04T02:04:12.264Z,-0.69
2022-12-04T02:07:15.102Z,-0.69
2022-12-04T02:10:24.679Z,-0.70
2022-12-04T02:13:35.666Z,-0.69
2022-12-04T02:17:02.385Z,-0.70
2022-12-04T02:20:54.903Z,-0.71
2022-12-04T02:24:00.603Z,-0.71
2022-12-04T02:27:09.145Z,-0.72
2022-12-04T02:30:13.637Z,-0.71
2022-12-04T02:33:23.919Z,-0.70
2022-12-04T02:36:31.379Z,-0.71
2022-12-04T02:39:44.677Z,-0.73
2022-12-04T02:42:58.929Z,-0.74
2022-12-04T02:46:18.132Z,-0.76
2022-12-04T02:49:31.234Z,-0.80
2022-12-04T02:52:38.902Z,-0.82
2022-12-04T02:55:51.088Z,-0.85
2022-12-04T02:59:02.482Z,-0.89
2022-12-04T03:02:48.203Z,-0.90
2022-12-04T03:05:51.018Z,-0.92
2022-12-04T03:09:01.857Z,-0.93
2022-12-04T03:12:11.559Z,-0.94
2022-12-04T03:15:35.834Z,-0.96
2022-12-04T03:19:07.411Z,-0.98
2022-12-04T03:22:15.130Z,-0.97
2022-12-04T03:25:18.043Z,-0.96
2022-12-04T03:28:29.214Z,-0.97
2022-12-04T03:31:50.455Z,-0.97
2022-12-04T03:35:06.182Z,-0.98
2022-12-04T03:38:21.332Z,-0.99
2022-12-04T03:41:49.933Z,-0.99
2022-12-04T03:45:19.794Z,-1.00
2022-12-04T03:48:26.800Z,-1.00
2022-12-04T03:51:41.706Z,-1.00
2022-12-04T03:54:51.775Z,-1.01
2022-12-04T03:58:00.114Z,-1.02
2022-12-04T04:01:07.842Z,-1.03
2022-12-04T04:04:16.186Z,-1.05
2022-12-04T04:07:31.863Z,-1.06
2022-12-04T04:10:38.250Z,-1.06
2022-12-04T04:14:12.218Z,-1.05
2022-12-04T04:17:38.857Z,-1.03
2022-12-04T04:21:08.952Z,-1.03
2022-12-04T04:24:26.072Z,-1.05
2022-12-04T04:27:28.936Z,-1.04
2022-12-04T04:30:34.355Z,-1.03
2022-12-04T04:33:51.355Z,-1.03
2022-12-04T04:37:13.253Z,-1.04
2022-12-04T04:40:30.819Z,-1.05
2022-12-04T04:43:54.402Z,-1.09
2022-12-04T04:47:02.933Z,-1.07
2022-12-04T04:50:09.358Z,-1.07
2022-12-04T04:53:37.005Z,-1.07
2022-12-04T04:56:44.433Z,-1.07
2022-12-04T04:59:47.263Z,-1.06
2022-12-04T05:02:50.562Z,-1.06
2022-12-04T05:05:53.888Z,-1.06
2022-12-04T05:08:56.768Z,-1.01
2022-12-04T05:11:59.612Z,-0.93
2022-12-04T05:15:02.632Z,-0.92
2022-12-04T05:18:05.620Z,-0.89
2022-12-04T05:21:16.422Z,-0.85
2022-12-04T05:24:19.245Z,-0.80
2022-12-04T05:27:22.776Z,-0.75
2022-12-04T05:30:25.786Z,-0.71
2022-12-04T05:33:29.766Z,-0.67
2022-12-04T05:36:32.591Z,-0.66
2022-12-04T05:39:35.829Z,-0.69
2022-12-04T05:42:38.666Z,-0.74
2022-12-04T05:45:41.569Z,-0.73
2022-12-04T05:48:44.444Z,-0.72
2022-12-04T05:51:47.283Z,-0.68
2022-12-04T05:54:50.073Z,-0.63
2022-12-04T05:57:52.833Z,-0.66
2022-12-04T06:00:55.636Z,-0.65
2022-12-04T06:03:58.560Z,-0.67
2022-12-04T06:07:01.343Z,-0.70
2022-12-04T06:10:05.191Z,-0.71
2022-12-04T06:13:08.476Z,-0.70
2022-12-04T06:16:20.464Z,-0.69
2022-12-04T06:19:23.757Z,-0.69
2022-12-04T06:22:26.565Z,-0.70
2022-12-04T06:25:29.606Z,-0.71
2022-12-04T06:28:32.348Z,-0.73
2022-12-04T06:31:36.413Z,-0.76
2022-12-04T06:34:39.397Z,-0.78
2022-12-04T06:37:42.252Z,-0.78
2022-12-04T06:40:45.021Z,-0.77
2022-12-04T06:43:48.963Z,-0.73
2022-12-04T06:46:54.693Z,-0.67
2022-12-04T06:49:58.232Z,-0.59
2022-12-04T06:53:07.958Z,-0.51
2022-12-04T06:56:17.906Z,-0.47
2022-12-04T06:59:20.708Z,-0.42
2022-12-04T07:02:23.611Z,-0.35
2022-12-04T07:05:27.685Z,-0.29
2022-12-04T07:08:30.466Z,-0.24
2022-12-04T07:11:34.232Z,-0.20
2022-12-04T07:14:37.120Z,-0.17
2022-12-04T07:17:39.954Z,-0.13
2022-12-04T07:20:42.737Z,-0.10
2022-12-04T07:23:46.091Z,-0.03
2022-12-04T07:26:49.000Z,0.01
2022-12-04T07:29:53.234Z,0.07
2022-12-04T07:32:56.124Z,0.11
2022-12-04T07:36:00.842Z,0.15
2022-12-04T07:39:03.980Z,0.17
2022-12-04T07:42:06.724Z,0.20
2022-12-04T07:45:10.039Z,0.20
2022-12-04T07:48:12.852Z,0.22
2022-12-04T07:51:20.817Z,0.27
2022-12-04T07:54:23.621Z,0.38
2022-12-04T07:57:28.214Z,0.50
2022-12-04T08:00:31.023Z,0.56
2022-12-04T08:03:33.887Z,0.72
2022-12-04T08:06:37.625Z,0.98
2022-12-04T08:09:40.477Z,1.22
2022-12-04T08:12:43.291Z,1.27
2022-12-04T08:15:46.062Z,1.32
2022-12-04T08:18:48.961Z,1.47
2022-12-04T08:21:54.873Z,1.66
2022-12-04T08:24:57.652Z,1.85
2022-12-04T08:28:00.510Z,1.98
2022-12-04T08:31:11.857Z,2.03
2022-12-04T08:34:15.406Z,1.93
2022-12-04T08:37:18.408Z,1.88
2022-12-04T08:40:21.207Z,1.83
2022-12-04T08:43:24.017Z,1.93
2022-12-04T08:46:28.295Z,2.09
2022-12-04T08:49:31.222Z,2.29
2022-12-04T08:52:34.022Z,2.41
2022-12-04T08:55:36.772Z,2.53
2022-12-04T08:58:39.640Z,2.56
2022-12-04T09:01:42.492Z,2.52
2022-12-04T09:04:45.417Z,2.62
2022-12-04T09:07:48.328Z,2.74
2022-12-04T09:10:51.147Z,2.85
2022-12-04T09:13:54.460Z,3.00
2022-12-04T09:16:57.303Z,3.22
2022-12-04T09:20:01.418Z,3.39
2022-12-04T09:23:05.719Z,3.51
2022-12-04T09:26:26.842Z,3.68
2022-12-04T09:29:31.742Z,3.69
2022-12-04T09:32:35.279Z,3.68
2022-12-04T09:35:41.154Z,3.67
2022-12-04T09:38:46.487Z,3.66
2022-12-04T09:42:03.061Z,3.70
2022-12-04T09:45:17.831Z,3.70
2022-12-04T09:48:27.296Z,3.64
2022-12-04T09:51:32.271Z,3.67
2022-12-04T09:54:41.218Z,3.74
2022-12-04T09:57:47.647Z,3.74
2022-12-04T10:00:51.391Z,3.78
2022-12-04T10:03:59.915Z,3.84
2022-12-04T10:07:25.314Z,3.86
2022-12-04T10:10:45.688Z,3.92
2022-12-04T10:13:48.500Z,3.99
2022-12-04T10:17:10.096Z,4.02
2022-12-04T10:20:28.344Z,3.99
2022-12-04T10:23:46.587Z,4.04
2022-12-04T10:26:49.627Z,3.98
2022-12-04T10:29:58.426Z,3.89
2022-12-04T10:33:19.566Z,3.74
2022-12-04T10:36:28.426Z,3.59
2022-12-04T10:39:50.907Z,3.48
2022-12-04T10:43:14.485Z,3.49
2022-12-04T10:46:33.692Z,3.58
2022-12-04T10:49:37.746Z,3.63
2022-12-04T10:52:40.520Z,3.63
2022-12-04T10:55:43.494Z,3.70
2022-12-04T10:59:01.103Z,3.72
2022-12-04T11:02:24.118Z,3.69
2022-12-04T11:05:32.112Z,3.67
2022-12-04T11:08:50.186Z,3.61
2022-12-04T11:11:53.137Z,3.52
2022-12-04T11:15:08.341Z,3.45
2022-12-04T11:18:25.250Z,3.37
2022-12-04T11:21:30.832Z,3.35
2022-12-04T11:24:36.922Z,3.31
2022-12-04T11:27:39.765Z,3.30
2022-12-04T11:30:49.290Z,3.20
2022-12-04T11:34:00.280Z,3.18
2022-12-04T11:37:04.422Z,3.21
2022-12-04T11:40:16.992Z,3.25
2022-12-04T11:43:20.850Z,3.23
2022-12-04T11:46:27.393Z,3.14
2022-12-04T11:49:32.740Z,2.96
2022-12-04T11:52:53.328Z,2.92
2022-12-04T11:56:16.244Z,3.06
2022-12-04T11:59:43.056Z,3.14
2022-12-04T12:03:06.612Z,3.24
2022-12-04T12:06:32.832Z,3.24
2022-12-04T12:09:46.262Z,3.24
2022-12-04T12:12:58.366Z,3.27
2022-12-04T12:16:13.437Z,3.24
2022-12-04T12:19:22.598Z,3.25
2022-12-04T12:22:40.939Z,3.30
2022-12-04T12:26:00.514Z,3.37
2022-12-04T12:29:17.644Z,3.39
2022-12-04T12:32:29.569Z,3.39
2022-12-04T12:35:45.881Z,3.34
2022-12-04T12:39:16.490Z,3.29
2022-12-04T12:42:26.520Z,3.19
2022-12-04T12:45:48.015Z,3.02
2022-12-04T12:49:00.802Z,2.89
2022-12-04T12:52:14.812Z,2.70
2022-12-04T12:55:29.873Z,2.55
2022-12-04T12:58:36.544Z,2.41
2022-12-04T13:01:57.277Z,2.32
2022-12-04T13:05:11.026Z,2.24
2022-12-04T13:08:36.659Z,2.17
2022-12-04T13:11:40.600Z,2.13
2022-12-04T13:14:48.664Z,2.08
2022-12-04T13:17:55.387Z,2.01
2022-12-04T13:21:03.711Z,1.98
2022-12-04T13:24:31.672Z,1.90
2022-12-04T13:27:53.646Z,1.85
2022-12-04T13:31:27.891Z,1.82
2022-12-04T13:35:03.865Z,1.75
2022-12-04T13:38:28.729Z,1.71
2022-12-04T13:41:38.933Z,1.66
2022-12-04T13:44:41.860Z,1.64
2022-12-04T13:47:44.643Z,1.61
2022-12-04T13:50:47.564Z,1.56
2022-12-04T13:54:21.471Z,1.51
2022-12-04T13:57:25.713Z,1.47
2022-12-04T14:00:34.952Z,1.40
2022-12-04T14:03:48.604Z,1.34
2022-12-04T14:06:52.650Z,1.31
2022-12-04T14:09:58.016Z,1.28
2022-12-04T14:13:07.138Z,1.23
2022-12-04T14:16:22.201Z,1.19
2022-12-04T14:19:36.642Z,1.15
2022-12-04T14:22:43.864Z,1.13
2022-12-04T14:25:46.783Z,1.15
2022-12-04T14:28:50.586Z,1.12
2022-12-04T14:31:55.942Z,1.03
2022-12-04T14:34:59.398Z,0.98
2022-12-04T14:38:06.429Z,0.93
2022-12-04T14:41:09.768Z,0.86
2022-12-04T14:44:29.761Z,0.80
2022-12-04T14:48:10.482Z,0.77
2022-12-04T14:51:33.327Z,0.66
2022-12-04T14:54:44.913Z,0.58
2022-12-04T14:57:59.821Z,0.50
2022-12-04T15:01:05.961Z,0.40
2022-12-04T15:04:35.439Z,0.33
2022-12-04T15:07:48.100Z,0.27
2022-12-04T15:11:09.693Z,0.21
2022-12-04T15:14:14.022Z,0.16
2022-12-04T15:17:18.826Z,0.15
2022-12-04T15:20:21.864Z,0.14
2022-12-04T15:23:34.000Z,0.11
2022-12-04T15:26:38.013Z,0.09
2022-12-04T15:29:48.386Z,0.07
2022-12-04T15:32:53.608Z,0.08
2022-12-04T15:36:05.593Z,0.06
2022-12-04T15:39:14.123Z,-0.00
2022-12-04T15:42:25.961Z,0.00
2022-12-04T15:45:32.256Z,-0.03
2022-12-04T15:48:35.062Z,-0.06
2022-12-04T15:51:37.972Z,-0.12
2022-12-04T15:54:56.699Z,-0.16
2022-12-04T15:58:24.725Z,-0.14
2022-12-04T16:01:28.149Z,-0.12
2022-12-04T16:04:35.616Z,-0.11
2022-12-04T16:07:57.832Z,-0.06
2022-12-04T16:11:08.004Z,-0.05
2022-12-04T16:14:18.810Z,-0.07
2022-12-04T16:17:31.768Z,-0.07
2022-12-04T16:20:36.509Z,-0.09
2022-12-04T16:23:39.293Z,-0.10
2022-12-04T16:26:42.221Z,-0.11
2022-12-04T16:29:45.537Z,-0.10
2022-12-04T16:32:48.575Z,-0.08
2022-12-04T16:35:51.373Z,-0.05
2022-12-04T16:38:54.260Z,-0.03
2022-12-04T16:41:57.236Z,-0.03
2022-12-04T16:45:00.162Z,-0.02
2022-12-04T16:48:03.254Z,-0.03
2022-12-04T16:51:06.074Z,-0.05
2022-12-04T16:54:10.479Z,-0.13
2022-12-04T16:57:13.323Z,-0.15
2022-12-04T17:00:17.760Z,-0.13
2022-12-04T17:03:29.646Z,-0.11
2022-12-04T17:06:33.262Z,-0.10
2022-12-04T17:09:36.022Z,-0.06
2022-12-04T17:12:39.777Z,0.02
2022-12-04T17:15:42.543Z,0.10
2022-12-04T17:18:45.351Z,0.14
2022-12-04T17:21:48.166Z,0.13
2022-12-04T17:24:55.978Z,0.08
2022-12-04T17:27:59.196Z,0.04
2022-12-04T17:31:04.654Z,-0.01
2022-12-04T17:34:07.529Z,-0.09
2022-12-04T17:37:10.410Z,-0.12
2022-12-04T17:40:14.770Z,-0.15
2022-12-04T17:43:21.889Z,-0.21
2022-12-04T17:46:25.251Z,-0.27
2022-12-04T17:49:28.240Z,-0.28
2022-12-04T17:52:31.652Z,-0.28
2022-12-04T17:55:35.173Z,-0.22
2022-12-04T17:58:38.425Z,-0.17
2022-12-04T18:01:41.237Z,-0.17
2022-12-04T18:04:44.050Z,-0.19
2022-12-04T18:07:46.943Z,-0.17
2022-12-04T18:10:50.458Z,-0.16
2022-12-04T18:13:59.444Z,-0.16
2022-12-04T18:17:02.914Z,-0.22
2022-12-04T18:20:07.049Z,-0.29
2022-12-04T18:23:10.221Z,-0.32
2022-12-04T18:26:15.353Z,-0.36
2022-12-04T18:29:21.994Z,-0.37
2022-12-04T18:32:24.788Z,-0.38
2022-12-04T18:35:27.589Z,-0.39
2022-12-04T18:38:32.105Z,-0.41
2022-12-04T18:41:35.339Z,-0.41
2022-12-04T18:44:38.152Z,-0.46
2022-12-04T18:47:41.057Z,-0.50
2022-12-04T18:50:43.821Z,-0.46
2022-12-04T18:53:47.773Z,-0.45
2022-12-04T18:56:51.422Z,-0.45
2022-12-04T18:59:54.903Z,-0.44
2022-12-04T19:02:58.049Z,-0.47
2022-12-04T19:06:01.720Z,-0.46
2022-12-04T19:09:11.331Z,-0.45
2022-12-04T19:12:14.742Z,-0.43
2022-12-04T19:15:17.584Z,-0.43
2022-12-04T19:18:20.398Z,-0.45
2022-12-04T19:21:24.132Z,-0.45
2022-12-04T19:24:26.868Z,-0.44
2022-12-04T19:27:29.688Z,-0.42
2022-12-04T19:30:33.831Z,-0.41
2022-12-04T19:33:37.361Z,-0.39
2022-12-04T19:36:41.387Z,-0.38
2022-12-04T19:39:44.370Z,-0.32
2022-12-04T19:42:47.372Z,-0.33
2022-12-04T19:45:50.436Z,-0.39
2022-12-04T19:48:56.892Z,-0.41
2022-12-04T19:51:59.709Z,-0.46
2022-12-04T19:55:02.596Z,-0.51
2022-12-04T19:58:05.400Z,-0.53
2022-12-04T20:01:10.763Z,-0.55
2022-12-04T20:04:13.627Z,-0.56
2022-12-04T20:07:16.482Z,-0.57
2022-12-04T20:10:19.436Z,-0.56
2022-12-04T20:13:22.265Z,-0.55
2022-12-04T20:16:26.690Z,-0.56
2022-12-04T20:19:29.596Z,-0.55
2022-12-04T20:22:32.502Z,-0.54
2022-12-04T20:25:36.410Z,-0.50
2022-12-04T20:28:41.230Z,-0.51
2022-12-04T20:31:46.825Z,-0.52
2022-12-04T20:34:49.655Z,-0.49
2022-12-04T20:37:52.399Z,-0.46
2022-12-04T20:40:55.220Z,-0.49
2022-12-04T20:44:04.921Z,-0.50
2022-12-04T20:47:07.817Z,-0.45
2022-12-04T20:50:11.219Z,-0.38
2022-12-04T20:53:14.085Z,-0.31
2022-12-04T20:56:18.724Z,-0.31
2022-12-04T20:59:23.357Z,-0.33
2022-12-04T21:02:26.328Z,-0.33
2022-12-04T21:05:29.112Z,-0.33
2022-12-04T21:08:51.205Z,-0.31
2022-12-04T21:11:55.685Z,-0.28
2022-12-04T21:15:17.419Z,-0.27
2022-12-04T21:18:20.242Z,-0.23
2022-12-04T21:21:23.076Z,-0.19
2022-12-04T21:24:30.497Z,-0.15
2022-12-04T21:27:33.317Z,-0.14
2022-12-04T21:30:36.126Z,-0.15
2022-12-04T21:33:38.926Z,-0.14
2022-12-04T21:36:42.783Z,-0.13
2022-12-04T21:39:45.710Z,-0.09
2022-12-04T21:42:48.467Z,-0.06
2022-12-04T21:46:09.375Z,-0.09
2022-12-04T21:49:13.916Z,-0.05
2022-12-04T21:52:17.784Z,-0.02
2022-12-04T21:55:20.593Z,-0.01
2022-12-04T21:58:26.098Z,-0.03
2022-12-04T22:01:29.080Z,0.00
2022-12-04T22:04:31.944Z,0.05
2022-12-04T22:07:34.785Z,0.12
2022-12-04T22:10:45.752Z,0.17
2022-12-04T22:13:48.658Z,0.20
2022-12-04T22:16:52.523Z,0.29
2022-12-04T22:19:55.715Z,0.34
2022-12-04T22:22:59.254Z,0.38
2022-12-04T22:26:10.732Z,0.38
2022-12-04T22:29:42.042Z,0.36
2022-12-04T22:32:36.881Z,0.32
2022-12-04T22:35:39.673Z,0.30
2022-12-04T22:39:05.964Z,0.27
2022-12-04T22:42:05.684Z,0.29
2022-12-04T22:45:09.758Z,0.30
2022-12-04T22:48:12.532Z,0.39
2022-12-04T22:51:18.778Z,0.48
2022-12-04T22:54:21.636Z,0.55
2022-12-04T22:57:25.057Z,0.62
2022-12-04T23:00:28.426Z,0.66
2022-12-04T23:03:31.223Z,0.70
2022-12-04T23:06:34.553Z,0.72
2022-12-04T23:09:37.523Z,0.75
2022-12-04T23:12:40.361Z,0.78
2022-12-04T23:15:43.158Z,0.79
2022-12-04T23:18:46.014Z,0.79
2022-12-04T23:21:56.409Z,0.82
2022-12-04T23:25:00.360Z,0.82
2022-12-04T23:28:03.202Z,0.83
2022-12-04T23:31:06.286Z,0.83
2022-12-04T23:34:09.100Z,0.85
2022-12-04T23:37:24.164Z,0.85
2022-12-04T23:40:26.794Z,0.87
2022-12-04T23:43:29.678Z,0.88
2022-12-04T23:46:33.243Z,0.85
2022-12-04T23:49:36.176Z,0.80
2022-12-04T23:52:39.056Z,0.76
2022-12-04T23:55:41.716Z,0.74
2022-12-04T23:58:45.772Z,0.71
